sensor_id;sensor_type;location;lat;lon;timestamp;P1;durP1;ratioP1;P2;durP2;ratioP2
45650;SDS011;31365;48.858;8.530;2023-06-22T00:01:30;6.35;;;5.38;;
45650;SDS011;31365;48.858;8.530;2023-06-22T00:03:59;7.97;;;5.70;;
45650;SDS011;31365;48.858;8.530;2023-06-22T00:06:27;6.05;;;5.53;;
45650;SDS011;31365;48.858;8.530;2023-06-22T00:08:55;6.53;;;5.28;;
45650;SDS011;31365;48.858;8.530;2023-06-22T00:11:24;6.53;;;5.40;;
45650;SDS011;31365;48.858;8.530;2023-06-22T00:13:52;7.38;;;5.43;;
45650;SDS011;31365;48.858;8.530;2023-06-22T00:16:21;5.43;;;4.93;;
45650;SDS011;31365;48.858;8.530;2023-06-22T00:18:50;6.88;;;6.18;;
45650;SDS011;31365;48.858;8.530;2023-06-22T00:21:19;6.20;;;5.60;;
45650;SDS011;31365;48.858;8.530;2023-06-22T00:23:47;7.85;;;6.00;;
45650;SDS011;31365;48.858;8.530;2023-06-22T00:26:17;9.27;;;5.82;;
45650;SDS011;31365;48.858;8.530;2023-06-22T00:28:45;6.88;;;5.68;;
45650;SDS011;31365;48.858;8.530;2023-06-22T00:31:15;7.18;;;5.97;;
45650;SDS011;31365;48.858;8.530;2023-06-22T00:33:43;6.47;;;5.80;;
45650;SDS011;31365;48.858;8.530;2023-06-22T00:36:13;6.85;;;5.88;;
45650;SDS011;31365;48.858;8.530;2023-06-22T00:38:42;8.15;;;6.40;;
45650;SDS011;31365;48.858;8.530;2023-06-22T00:41:11;9.20;;;5.82;;
45650;SDS011;31365;48.858;8.530;2023-06-22T00:43:40;6.95;;;6.03;;
45650;SDS011;31365;48.858;8.530;2023-06-22T00:46:09;9.90;;;6.05;;
45650;SDS011;31365;48.858;8.530;2023-06-22T00:48:38;6.88;;;5.72;;
45650;SDS011;31365;48.858;8.530;2023-06-22T00:51:12;6.45;;;5.82;;
45650;SDS011;31365;48.858;8.530;2023-06-22T00:53:41;6.28;;;5.45;;
45650;SDS011;31365;48.858;8.530;2023-06-22T00:56:10;5.95;;;5.38;;
45650;SDS011;31365;48.858;8.530;2023-06-22T00:58:39;6.32;;;5.72;;
45650;SDS011;31365;48.858;8.530;2023-06-22T01:01:08;6.70;;;5.63;;
45650;SDS011;31365;48.858;8.530;2023-06-22T01:03:37;6.10;;;5.50;;
45650;SDS011;31365;48.858;8.530;2023-06-22T01:06:06;6.03;;;5.40;;
45650;SDS011;31365;48.858;8.530;2023-06-22T01:08:44;6.25;;;5.63;;
45650;SDS011;31365;48.858;8.530;2023-06-22T01:11:23;8.50;;;6.07;;
45650;SDS011;31365;48.858;8.530;2023-06-22T01:14:01;5.93;;;5.32;;
45650;SDS011;31365;48.858;8.530;2023-06-22T01:16:40;5.78;;;5.15;;
45650;SDS011;31365;48.858;8.530;2023-06-22T01:19:17;8.57;;;5.43;;
45650;SDS011;31365;48.858;8.530;2023-06-22T01:22:05;6.40;;;5.38;;
45650;SDS011;31365;48.858;8.530;2023-06-22T01:24:44;6.78;;;5.70;;
45650;SDS011;31365;48.858;8.530;2023-06-22T01:27:32;6.25;;;5.13;;
45650;SDS011;31365;48.858;8.530;2023-06-22T01:30:14;6.70;;;5.80;;
45650;SDS011;31365;48.858;8.530;2023-06-22T01:32:46;8.27;;;5.38;;
45650;SDS011;31365;48.858;8.530;2023-06-22T01:35:17;5.70;;;5.20;;
45650;SDS011;31365;48.858;8.530;2023-06-22T01:37:49;6.57;;;5.40;;
45650;SDS011;31365;48.858;8.530;2023-06-22T01:40:19;8.77;;;5.97;;
45650;SDS011;31365;48.858;8.530;2023-06-22T01:42:50;5.80;;;5.22;;
45650;SDS011;31365;48.858;8.530;2023-06-22T01:45:21;6.18;;;5.68;;
45650;SDS011;31365;48.858;8.530;2023-06-22T01:47:51;5.72;;;5.15;;
45650;SDS011;31365;48.858;8.530;2023-06-22T01:50:20;7.50;;;5.45;;
45650;SDS011;31365;48.858;8.530;2023-06-22T01:52:49;7.25;;;6.10;;
45650;SDS011;31365;48.858;8.530;2023-06-22T01:55:18;6.65;;;5.95;;
45650;SDS011;31365;48.858;8.530;2023-06-22T01:57:48;9.38;;;6.38;;
45650;SDS011;31365;48.858;8.530;2023-06-22T02:00:18;7.50;;;6.25;;
45650;SDS011;31365;48.858;8.530;2023-06-22T02:02:56;6.80;;;6.18;;
45650;SDS011;31365;48.858;8.530;2023-06-22T02:05:31;7.22;;;6.53;;
45650;SDS011;31365;48.858;8.530;2023-06-22T02:08:09;6.38;;;5.78;;
45650;SDS011;31365;48.858;8.530;2023-06-22T02:10:43;8.68;;;7.68;;
45650;SDS011;31365;48.858;8.530;2023-06-22T02:13:14;7.68;;;6.75;;
45650;SDS011;31365;48.858;8.530;2023-06-22T02:15:47;8.63;;;6.80;;
45650;SDS011;31365;48.858;8.530;2023-06-22T02:18:16;6.50;;;5.90;;
45650;SDS011;31365;48.858;8.530;2023-06-22T02:20:47;6.88;;;6.15;;
45650;SDS011;31365;48.858;8.530;2023-06-22T02:23:16;8.10;;;7.28;;
45650;SDS011;31365;48.858;8.530;2023-06-22T02:25:44;7.45;;;6.75;;
45650;SDS011;31365;48.858;8.530;2023-06-22T02:28:14;9.90;;;6.75;;
45650;SDS011;31365;48.858;8.530;2023-06-22T02:30:44;7.30;;;6.57;;
45650;SDS011;31365;48.858;8.530;2023-06-22T02:33:14;10.75;;;7.32;;
45650;SDS011;31365;48.858;8.530;2023-06-22T02:35:45;7.00;;;6.40;;
45650;SDS011;31365;48.858;8.530;2023-06-22T02:38:15;8.18;;;7.18;;
45650;SDS011;31365;48.858;8.530;2023-06-22T02:40:44;7.20;;;6.60;;
45650;SDS011;31365;48.858;8.530;2023-06-22T02:43:14;11.15;;;6.95;;
45650;SDS011;31365;48.858;8.530;2023-06-22T02:45:43;11.55;;;9.02;;
45650;SDS011;31365;48.858;8.530;2023-06-22T02:48:13;8.55;;;7.75;;
45650;SDS011;31365;48.858;8.530;2023-06-22T03:33:23;7.30;;;6.28;;
45650;SDS011;31365;48.858;8.530;2023-06-22T03:57:23;7.88;;;6.18;;
45650;SDS011;31365;48.858;8.530;2023-06-22T03:59:54;6.70;;;6.10;;
45650;SDS011;31365;48.858;8.530;2023-06-22T04:02:24;7.47;;;5.88;;
45650;SDS011;31365;48.858;8.530;2023-06-22T04:04:53;8.50;;;6.00;;
45650;SDS011;31365;48.858;8.530;2023-06-22T04:07:22;7.18;;;6.47;;
45650;SDS011;31365;48.858;8.530;2023-06-22T04:09:51;7.43;;;6.38;;
45650;SDS011;31365;48.858;8.530;2023-06-22T04:12:21;10.02;;;6.15;;
45650;SDS011;31365;48.858;8.530;2023-06-22T04:14:49;7.38;;;6.07;;
45650;SDS011;31365;48.858;8.530;2023-06-22T04:17:17;7.38;;;5.95;;
45650;SDS011;31365;48.858;8.530;2023-06-22T04:19:46;10.05;;;6.68;;
45650;SDS011;31365;48.858;8.530;2023-06-22T04:22:15;6.57;;;5.88;;
45650;SDS011;31365;48.858;8.530;2023-06-22T04:24:43;8.63;;;6.47;;
45650;SDS011;31365;48.858;8.530;2023-06-22T04:27:12;6.47;;;5.38;;
45650;SDS011;31365;48.858;8.530;2023-06-22T04:29:42;5.28;;;4.85;;
45650;SDS011;31365;48.858;8.530;2023-06-22T04:32:15;13.35;;;6.43;;
45650;SDS011;31365;48.858;8.530;2023-06-22T04:34:44;6.47;;;5.95;;
45650;SDS011;31365;48.858;8.530;2023-06-22T04:37:13;7.22;;;6.47;;
45650;SDS011;31365;48.858;8.530;2023-06-22T04:39:42;6.57;;;5.65;;
45650;SDS011;31365;48.858;8.530;2023-06-22T04:42:11;9.00;;;6.45;;
45650;SDS011;31365;48.858;8.530;2023-06-22T04:44:41;10.65;;;6.25;;
45650;SDS011;31365;48.858;8.530;2023-06-22T04:47:10;6.82;;;6.13;;
45650;SDS011;31365;48.858;8.530;2023-06-22T04:49:38;6.70;;;5.97;;
45650;SDS011;31365;48.858;8.530;2023-06-22T04:52:10;7.03;;;5.85;;
45650;SDS011;31365;48.858;8.530;2023-06-22T04:54:47;6.15;;;5.35;;
45650;SDS011;31365;48.858;8.530;2023-06-22T04:57:17;6.13;;;5.53;;
45650;SDS011;31365;48.858;8.530;2023-06-22T04:59:46;6.10;;;5.57;;
45650;SDS011;31365;48.858;8.530;2023-06-22T05:02:15;6.13;;;5.35;;
45650;SDS011;31365;48.858;8.530;2023-06-22T05:04:44;6.55;;;5.88;;
45650;SDS011;31365;48.858;8.530;2023-06-22T05:07:18;6.45;;;5.65;;
45650;SDS011;31365;48.858;8.530;2023-06-22T05:09:46;6.20;;;5.60;;
45650;SDS011;31365;48.858;8.530;2023-06-22T05:12:15;7.80;;;5.57;;
45650;SDS011;31365;48.858;8.530;2023-06-22T05:14:44;7.45;;;5.55;;
45650;SDS011;31365;48.858;8.530;2023-06-22T05:17:13;6.50;;;5.80;;
45650;SDS011;31365;48.858;8.530;2023-06-22T05:19:46;6.78;;;5.35;;
45650;SDS011;31365;48.858;8.530;2023-06-22T05:22:15;6.43;;;5.82;;
45650;SDS011;31365;48.858;8.530;2023-06-22T05:24:45;7.25;;;5.60;;
45650;SDS011;31365;48.858;8.530;2023-06-22T05:27:14;7.40;;;5.72;;
45650;SDS011;31365;48.858;8.530;2023-06-22T05:29:42;6.25;;;5.45;;
45650;SDS011;31365;48.858;8.530;2023-06-22T05:32:11;10.27;;;5.47;;
45650;SDS011;31365;48.858;8.530;2023-06-22T05:34:42;5.75;;;5.15;;
45650;SDS011;31365;48.858;8.530;2023-06-22T05:37:10;6.47;;;5.15;;
45650;SDS011;31365;48.858;8.530;2023-06-22T05:39:39;6.18;;;5.38;;
45650;SDS011;31365;48.858;8.530;2023-06-22T05:42:07;5.10;;;4.60;;
45650;SDS011;31365;48.858;8.530;2023-06-22T05:44:36;5.38;;;4.80;;
45650;SDS011;31365;48.858;8.530;2023-06-22T05:47:06;5.40;;;4.82;;
45650;SDS011;31365;48.858;8.530;2023-06-22T05:49:36;7.35;;;5.38;;
45650;SDS011;31365;48.858;8.530;2023-06-22T05:52:05;6.15;;;5.20;;
45650;SDS011;31365;48.858;8.530;2023-06-22T05:54:35;8.25;;;4.90;;
45650;SDS011;31365;48.858;8.530;2023-06-22T05:57:05;5.20;;;4.70;;
45650;SDS011;31365;48.858;8.530;2023-06-22T05:59:34;7.47;;;5.18;;
45650;SDS011;31365;48.858;8.530;2023-06-22T06:02:03;7.95;;;5.28;;
45650;SDS011;31365;48.858;8.530;2023-06-22T06:04:32;5.28;;;4.78;;
45650;SDS011;31365;48.858;8.530;2023-06-22T06:07:03;5.53;;;5.03;;
45650;SDS011;31365;48.858;8.530;2023-06-22T06:09:32;6.38;;;5.13;;
45650;SDS011;31365;48.858;8.530;2023-06-22T06:12:00;6.18;;;4.72;;
45650;SDS011;31365;48.858;8.530;2023-06-22T06:14:29;9.98;;;4.97;;
45650;SDS011;31365;48.858;8.530;2023-06-22T06:16:58;7.53;;;4.97;;
45650;SDS011;31365;48.858;8.530;2023-06-22T06:19:27;7.93;;;5.85;;
45650;SDS011;31365;48.858;8.530;2023-06-22T06:21:55;9.10;;;5.55;;
45650;SDS011;31365;48.858;8.530;2023-06-22T06:24:26;17.90;;;6.82;;
45650;SDS011;31365;48.858;8.530;2023-06-22T06:26:54;8.43;;;5.70;;
45650;SDS011;31365;48.858;8.530;2023-06-22T06:29:23;8.55;;;6.40;;
45650;SDS011;31365;48.858;8.530;2023-06-22T06:31:51;9.50;;;5.25;;
45650;SDS011;31365;48.858;8.530;2023-06-22T06:34:20;6.63;;;4.30;;
45650;SDS011;31365;48.858;8.530;2023-06-22T06:36:49;8.32;;;4.35;;
45650;SDS011;31365;48.858;8.530;2023-06-22T06:39:17;5.45;;;4.10;;
45650;SDS011;31365;48.858;8.530;2023-06-22T06:41:48;7.03;;;4.50;;
45650;SDS011;31365;48.858;8.530;2023-06-22T06:44:18;5.50;;;4.50;;
45650;SDS011;31365;48.858;8.530;2023-06-22T06:46:48;4.63;;;4.22;;
45650;SDS011;31365;48.858;8.530;2023-06-22T06:49:16;9.35;;;4.78;;
45650;SDS011;31365;48.858;8.530;2023-06-22T06:51:45;5.72;;;4.82;;
45650;SDS011;31365;48.858;8.530;2023-06-22T06:54:13;9.80;;;5.10;;
45650;SDS011;31365;48.858;8.530;2023-06-22T06:56:42;11.35;;;4.72;;
45650;SDS011;31365;48.858;8.530;2023-06-22T06:59:16;7.20;;;4.18;;
45650;SDS011;31365;48.858;8.530;2023-06-22T07:01:44;6.30;;;5.65;;
45650;SDS011;31365;48.858;8.530;2023-06-22T07:04:15;8.05;;;4.28;;
45650;SDS011;31365;48.858;8.530;2023-06-22T07:06:43;6.22;;;3.80;;
45650;SDS011;31365;48.858;8.530;2023-06-22T07:09:12;7.03;;;3.97;;
45650;SDS011;31365;48.858;8.530;2023-06-22T07:11:40;6.22;;;4.50;;
45650;SDS011;31365;48.858;8.530;2023-06-22T07:14:09;5.72;;;4.10;;
45650;SDS011;31365;48.858;8.530;2023-06-22T07:16:39;6.57;;;4.53;;
45650;SDS011;31365;48.858;8.530;2023-06-22T07:19:07;5.40;;;3.80;;
45650;SDS011;31365;48.858;8.530;2023-06-22T07:21:36;6.13;;;3.88;;
45650;SDS011;31365;48.858;8.530;2023-06-22T07:24:04;4.95;;;3.53;;
45650;SDS011;31365;48.858;8.530;2023-06-22T07:26:35;7.00;;;4.22;;
45650;SDS011;31365;48.858;8.530;2023-06-22T07:29:04;7.43;;;3.50;;
45650;SDS011;31365;48.858;8.530;2023-06-22T07:31:32;10.27;;;4.47;;
45650;SDS011;31365;48.858;8.530;2023-06-22T07:34:02;9.98;;;4.43;;
45650;SDS011;31365;48.858;8.530;2023-06-22T07:36:31;7.65;;;4.07;;
45650;SDS011;31365;48.858;8.530;2023-06-22T07:39:02;6.28;;;4.15;;
45650;SDS011;31365;48.858;8.530;2023-06-22T07:41:31;11.05;;;4.30;;
45650;SDS011;31365;48.858;8.530;2023-06-22T07:44:00;7.88;;;4.15;;
45650;SDS011;31365;48.858;8.530;2023-06-22T07:46:29;6.07;;;3.85;;
45650;SDS011;31365;48.858;8.530;2023-06-22T07:48:58;6.97;;;4.57;;
45650;SDS011;31365;48.858;8.530;2023-06-22T07:51:29;7.97;;;4.30;;
45650;SDS011;31365;48.858;8.530;2023-06-22T07:53:57;10.10;;;4.93;;
45650;SDS011;31365;48.858;8.530;2023-06-22T07:56:26;11.95;;;4.40;;
45650;SDS011;31365;48.858;8.530;2023-06-22T07:58:55;11.38;;;4.75;;
45650;SDS011;31365;48.858;8.530;2023-06-22T08:01:26;7.45;;;4.45;;
45650;SDS011;31365;48.858;8.530;2023-06-22T08:03:54;8.82;;;4.32;;
45650;SDS011;31365;48.858;8.530;2023-06-22T08:06:22;5.63;;;4.32;;
45650;SDS011;31365;48.858;8.530;2023-06-22T08:08:53;8.38;;;4.93;;
45650;SDS011;31365;48.858;8.530;2023-06-22T08:11:23;8.18;;;4.20;;
45650;SDS011;31365;48.858;8.530;2023-06-22T08:13:51;6.78;;;4.70;;
45650;SDS011;31365;48.858;8.530;2023-06-22T08:16:22;7.55;;;4.75;;
45650;SDS011;31365;48.858;8.530;2023-06-22T08:18:51;8.80;;;4.35;;
45650;SDS011;31365;48.858;8.530;2023-06-22T08:21:21;9.07;;;4.93;;
45650;SDS011;31365;48.858;8.530;2023-06-22T08:23:49;6.35;;;4.55;;
45650;SDS011;31365;48.858;8.530;2023-06-22T08:26:19;9.10;;;5.20;;
45650;SDS011;31365;48.858;8.530;2023-06-22T08:28:48;6.78;;;4.53;;
45650;SDS011;31365;48.858;8.530;2023-06-22T08:31:19;8.27;;;4.50;;
45650;SDS011;31365;48.858;8.530;2023-06-22T08:33:47;6.22;;;4.45;;
45650;SDS011;31365;48.858;8.530;2023-06-22T08:36:17;8.02;;;4.55;;
45650;SDS011;31365;48.858;8.530;2023-06-22T08:38:45;14.45;;;5.20;;
45650;SDS011;31365;48.858;8.530;2023-06-22T08:41:19;8.35;;;4.82;;
45650;SDS011;31365;48.858;8.530;2023-06-22T08:43:47;6.40;;;4.05;;
45650;SDS011;31365;48.858;8.530;2023-06-22T08:46:15;6.68;;;4.38;;
45650;SDS011;31365;48.858;8.530;2023-06-22T08:48:48;4.72;;;4.05;;
45650;SDS011;31365;48.858;8.530;2023-06-22T08:51:16;9.30;;;5.15;;
45650;SDS011;31365;48.858;8.530;2023-06-22T08:53:45;6.25;;;4.30;;
45650;SDS011;31365;48.858;8.530;2023-06-22T08:56:13;7.13;;;4.43;;
45650;SDS011;31365;48.858;8.530;2023-06-22T08:58:43;9.30;;;4.65;;
45650;SDS011;31365;48.858;8.530;2023-06-22T09:01:11;10.20;;;4.38;;
45650;SDS011;31365;48.858;8.530;2023-06-22T09:03:41;9.63;;;5.30;;
45650;SDS011;31365;48.858;8.530;2023-06-22T09:06:10;8.35;;;4.55;;
45650;SDS011;31365;48.858;8.530;2023-06-22T09:08:41;8.77;;;4.70;;
45650;SDS011;31365;48.858;8.530;2023-06-22T09:11:09;11.05;;;4.90;;
45650;SDS011;31365;48.858;8.530;2023-06-22T09:13:37;9.18;;;5.03;;
45650;SDS011;31365;48.858;8.530;2023-06-22T09:16:07;6.57;;;4.93;;
45650;SDS011;31365;48.858;8.530;2023-06-22T09:18:36;7.88;;;5.50;;
45650;SDS011;31365;48.858;8.530;2023-06-22T09:21:05;6.05;;;4.53;;
45650;SDS011;31365;48.858;8.530;2023-06-22T09:23:34;5.28;;;4.78;;
45650;SDS011;31365;48.858;8.530;2023-06-22T09:26:02;6.50;;;4.80;;
45650;SDS011;31365;48.858;8.530;2023-06-22T09:28:31;9.27;;;5.38;;
45650;SDS011;31365;48.858;8.530;2023-06-22T09:31:00;8.88;;;5.03;;
45650;SDS011;31365;48.858;8.530;2023-06-22T09:33:30;9.32;;;4.60;;
45650;SDS011;31365;48.858;8.530;2023-06-22T09:35:58;8.70;;;5.05;;
45650;SDS011;31365;48.858;8.530;2023-06-22T09:38:28;8.07;;;5.13;;
45650;SDS011;31365;48.858;8.530;2023-06-22T09:40:57;11.00;;;5.63;;
45650;SDS011;31365;48.858;8.530;2023-06-22T09:43:25;7.15;;;4.93;;
45650;SDS011;31365;48.858;8.530;2023-06-22T09:45:55;8.68;;;5.72;;
45650;SDS011;31365;48.858;8.530;2023-06-22T09:48:24;5.38;;;4.88;;
45650;SDS011;31365;48.858;8.530;2023-06-22T09:50:54;6.65;;;5.25;;
45650;SDS011;31365;48.858;8.530;2023-06-22T09:53:22;5.97;;;4.93;;
45650;SDS011;31365;48.858;8.530;2023-06-22T09:55:52;7.97;;;5.57;;
45650;SDS011;31365;48.858;8.530;2023-06-22T09:58:20;6.88;;;5.65;;
45650;SDS011;31365;48.858;8.530;2023-06-22T10:00:50;7.28;;;4.90;;
45650;SDS011;31365;48.858;8.530;2023-06-22T10:03:19;7.93;;;5.20;;
45650;SDS011;31365;48.858;8.530;2023-06-22T10:05:48;10.35;;;5.22;;
45650;SDS011;31365;48.858;8.530;2023-06-22T10:08:18;6.80;;;5.25;;
45650;SDS011;31365;48.858;8.530;2023-06-22T10:10:48;6.78;;;4.90;;
45650;SDS011;31365;48.858;8.530;2023-06-22T10:13:19;9.07;;;5.03;;
45650;SDS011;31365;48.858;8.530;2023-06-22T10:15:47;7.85;;;5.47;;
45650;SDS011;31365;48.858;8.530;2023-06-22T10:18:18;6.18;;;4.88;;
45650;SDS011;31365;48.858;8.530;2023-06-22T10:20:47;8.93;;;5.13;;
45650;SDS011;31365;48.858;8.530;2023-06-22T10:23:20;8.60;;;5.07;;
45650;SDS011;31365;48.858;8.530;2023-06-22T10:25:49;6.28;;;5.32;;
45650;SDS011;31365;48.858;8.530;2023-06-22T10:28:20;6.53;;;5.25;;
45650;SDS011;31365;48.858;8.530;2023-06-22T10:30:49;7.72;;;5.30;;
45650;SDS011;31365;48.858;8.530;2023-06-22T10:33:17;6.90;;;5.38;;
45650;SDS011;31365;48.858;8.530;2023-06-22T10:35:47;7.53;;;5.90;;
45650;SDS011;31365;48.858;8.530;2023-06-22T10:38:15;10.02;;;5.38;;
45650;SDS011;31365;48.858;8.530;2023-06-22T10:40:45;7.22;;;5.30;;
45650;SDS011;31365;48.858;8.530;2023-06-22T10:43:13;8.80;;;5.47;;
45650;SDS011;31365;48.858;8.530;2023-06-22T10:45:41;5.30;;;4.32;;
45650;SDS011;31365;48.858;8.530;2023-06-22T10:48:10;6.85;;;5.25;;
45650;SDS011;31365;48.858;8.530;2023-06-22T10:50:38;8.00;;;5.45;;
45650;SDS011;31365;48.858;8.530;2023-06-22T10:53:07;9.93;;;5.25;;
45650;SDS011;31365;48.858;8.530;2023-06-22T10:55:35;6.93;;;5.25;;
45650;SDS011;31365;48.858;8.530;2023-06-22T10:58:23;8.05;;;5.05;;
45650;SDS011;31365;48.858;8.530;2023-06-22T11:00:52;8.18;;;5.20;;
45650;SDS011;31365;48.858;8.530;2023-06-22T11:03:21;7.40;;;4.82;;
45650;SDS011;31365;48.858;8.530;2023-06-22T11:05:49;5.63;;;5.07;;
45650;SDS011;31365;48.858;8.530;2023-06-22T11:08:18;6.65;;;4.88;;
45650;SDS011;31365;48.858;8.530;2023-06-22T11:10:47;8.45;;;4.93;;
45650;SDS011;31365;48.858;8.530;2023-06-22T11:13:15;9.82;;;5.85;;
45650;SDS011;31365;48.858;8.530;2023-06-22T11:15:45;7.03;;;4.90;;
45650;SDS011;31365;48.858;8.530;2023-06-22T11:18:14;8.32;;;4.85;;
45650;SDS011;31365;48.858;8.530;2023-06-22T11:20:42;10.65;;;5.60;;
45650;SDS011;31365;48.858;8.530;2023-06-22T11:23:11;6.65;;;4.78;;
45650;SDS011;31365;48.858;8.530;2023-06-22T11:25:39;7.00;;;5.05;;
45650;SDS011;31365;48.858;8.530;2023-06-22T11:28:09;6.45;;;5.40;;
45650;SDS011;31365;48.858;8.530;2023-06-22T11:30:37;5.35;;;4.85;;
45650;SDS011;31365;48.858;8.530;2023-06-22T11:33:07;9.07;;;5.10;;
45650;SDS011;31365;48.858;8.530;2023-06-22T11:35:36;6.85;;;5.30;;
45650;SDS011;31365;48.858;8.530;2023-06-22T11:38:05;9.98;;;5.63;;
45650;SDS011;31365;48.858;8.530;2023-06-22T11:40:34;7.30;;;5.93;;
45650;SDS011;31365;48.858;8.530;2023-06-22T11:43:02;7.18;;;5.40;;
45650;SDS011;31365;48.858;8.530;2023-06-22T11:45:31;6.20;;;4.60;;
45650;SDS011;31365;48.858;8.530;2023-06-22T11:47:59;9.40;;;4.88;;
45650;SDS011;31365;48.858;8.530;2023-06-22T11:50:29;8.07;;;5.15;;
45650;SDS011;31365;48.858;8.530;2023-06-22T11:53:02;8.27;;;5.70;;
45650;SDS011;31365;48.858;8.530;2023-06-22T11:55:31;8.05;;;5.30;;
45650;SDS011;31365;48.858;8.530;2023-06-22T11:57:59;7.55;;;5.22;;
45650;SDS011;31365;48.858;8.530;2023-06-22T12:00:30;7.13;;;5.50;;
45650;SDS011;31365;48.858;8.530;2023-06-22T12:03:15;8.02;;;5.10;;
45650;SDS011;31365;48.858;8.530;2023-06-22T12:05:46;10.45;;;5.50;;
45650;SDS011;31365;48.858;8.530;2023-06-22T12:08:14;9.80;;;5.90;;
45650;SDS011;31365;48.858;8.530;2023-06-22T12:10:43;7.40;;;5.72;;
45650;SDS011;31365;48.858;8.530;2023-06-22T12:13:11;6.95;;;5.38;;
45650;SDS011;31365;48.858;8.530;2023-06-22T12:15:39;6.18;;;5.35;;
45650;SDS011;31365;48.858;8.530;2023-06-22T12:18:08;7.50;;;5.28;;
45650;SDS011;31365;48.858;8.530;2023-06-22T12:20:37;7.35;;;4.78;;
45650;SDS011;31365;48.858;8.530;2023-06-22T12:23:06;12.48;;;5.70;;
45650;SDS011;31365;48.858;8.530;2023-06-22T12:25:35;9.32;;;5.07;;
45650;SDS011;31365;48.858;8.530;2023-06-22T12:28:03;9.57;;;5.75;;
45650;SDS011;31365;48.858;8.530;2023-06-22T12:30:32;6.18;;;5.50;;
45650;SDS011;31365;48.858;8.530;2023-06-22T12:33:01;7.45;;;5.57;;
45650;SDS011;31365;48.858;8.530;2023-06-22T12:35:30;7.18;;;5.07;;
45650;SDS011;31365;48.858;8.530;2023-06-22T12:37:58;5.97;;;4.95;;
45650;SDS011;31365;48.858;8.530;2023-06-22T12:40:30;9.15;;;5.25;;
45650;SDS011;31365;48.858;8.530;2023-06-22T12:42:59;7.05;;;5.20;;
45650;SDS011;31365;48.858;8.530;2023-06-22T12:45:28;8.82;;;5.40;;
45650;SDS011;31365;48.858;8.530;2023-06-22T12:47:59;7.45;;;5.88;;
45650;SDS011;31365;48.858;8.530;2023-06-22T12:50:28;11.63;;;6.10;;
45650;SDS011;31365;48.858;8.530;2023-06-22T12:52:57;11.23;;;5.43;;
45650;SDS011;31365;48.858;8.530;2023-06-22T12:55:27;6.60;;;5.68;;
45650;SDS011;31365;48.858;8.530;2023-06-22T12:57:56;8.38;;;5.75;;
45650;SDS011;31365;48.858;8.530;2023-06-22T13:00:25;10.27;;;6.15;;
45650;SDS011;31365;48.858;8.530;2023-06-22T13:02:54;8.65;;;5.90;;
45650;SDS011;31365;48.858;8.530;2023-06-22T13:05:23;10.95;;;5.78;;
45650;SDS011;31365;48.858;8.530;2023-06-22T13:07:52;7.28;;;5.93;;
45650;SDS011;31365;48.858;8.530;2023-06-22T13:10:21;8.40;;;5.30;;
45650;SDS011;31365;48.858;8.530;2023-06-22T13:12:49;8.35;;;5.53;;
45650;SDS011;31365;48.858;8.530;2023-06-22T13:15:20;10.43;;;6.03;;
45650;SDS011;31365;48.858;8.530;2023-06-22T13:17:49;9.07;;;6.00;;
45650;SDS011;31365;48.858;8.530;2023-06-22T13:20:17;7.57;;;5.88;;
45650;SDS011;31365;48.858;8.530;2023-06-22T13:22:46;9.23;;;5.68;;
45650;SDS011;31365;48.858;8.530;2023-06-22T13:25:15;6.78;;;5.35;;
45650;SDS011;31365;48.858;8.530;2023-06-22T13:27:45;6.05;;;4.93;;
45650;SDS011;31365;48.858;8.530;2023-06-22T13:44:48;8.80;;;5.27;;
45650;SDS011;31365;48.858;8.530;2023-06-22T13:47:17;6.85;;;4.97;;
45650;SDS011;31365;48.858;8.530;2023-06-22T13:49:46;8.93;;;5.07;;
45650;SDS011;31365;48.858;8.530;2023-06-22T13:52:14;6.50;;;4.97;;
45650;SDS011;31365;48.858;8.530;2023-06-22T13:54:43;6.05;;;4.88;;
45650;SDS011;31365;48.858;8.530;2023-06-22T13:57:11;6.95;;;5.47;;
45650;SDS011;31365;48.858;8.530;2023-06-22T13:59:40;7.78;;;5.40;;
45650;SDS011;31365;48.858;8.530;2023-06-22T14:02:10;6.30;;;5.40;;
45650;SDS011;31365;48.858;8.530;2023-06-22T14:04:38;9.65;;;5.60;;
45650;SDS011;31365;48.858;8.530;2023-06-22T14:07:07;7.45;;;5.20;;
45650;SDS011;31365;48.858;8.530;2023-06-22T14:09:36;9.20;;;4.68;;
45650;SDS011;31365;48.858;8.530;2023-06-22T14:12:05;8.60;;;4.22;;
45650;SDS011;31365;48.858;8.530;2023-06-22T14:14:36;9.10;;;4.97;;
45650;SDS011;31365;48.858;8.530;2023-06-22T14:17:05;6.72;;;4.63;;
45650;SDS011;31365;48.858;8.530;2023-06-22T14:19:35;7.13;;;4.95;;
45650;SDS011;31365;48.858;8.530;2023-06-22T14:22:04;11.80;;;6.10;;
45650;SDS011;31365;48.858;8.530;2023-06-22T14:24:33;8.25;;;5.45;;
45650;SDS011;31365;48.858;8.530;2023-06-22T14:27:01;9.63;;;5.80;;
45650;SDS011;31365;48.858;8.530;2023-06-22T14:29:34;7.15;;;6.18;;
45650;SDS011;31365;48.858;8.530;2023-06-22T14:32:03;10.43;;;5.80;;
45650;SDS011;31365;48.858;8.530;2023-06-22T14:34:34;7.35;;;6.07;;
45650;SDS011;31365;48.858;8.530;2023-06-22T14:37:05;6.82;;;5.97;;
45650;SDS011;31365;48.858;8.530;2023-06-22T14:39:36;8.98;;;7.22;;
45650;SDS011;31365;48.858;8.530;2023-06-22T14:42:05;9.35;;;6.38;;
45650;SDS011;31365;48.858;8.530;2023-06-22T14:44:36;8.82;;;6.60;;
45650;SDS011;31365;48.858;8.530;2023-06-22T14:47:05;8.98;;;6.32;;
45650;SDS011;31365;48.858;8.530;2023-06-22T14:49:36;10.45;;;7.65;;
45650;SDS011;31365;48.858;8.530;2023-06-22T14:52:05;10.52;;;7.13;;
45650;SDS011;31365;48.858;8.530;2023-06-22T14:54:34;8.48;;;6.90;;
45650;SDS011;31365;48.858;8.530;2023-06-22T14:57:02;7.45;;;6.00;;
45650;SDS011;31365;48.858;8.530;2023-06-22T14:59:31;10.45;;;6.30;;
45650;SDS011;31365;48.858;8.530;2023-06-22T15:01:59;8.15;;;5.53;;
45650;SDS011;31365;48.858;8.530;2023-06-22T15:04:28;7.72;;;5.82;;
45650;SDS011;31365;48.858;8.530;2023-06-22T15:07:03;9.65;;;6.18;;
45650;SDS011;31365;48.858;8.530;2023-06-22T15:09:31;9.10;;;5.72;;
45650;SDS011;31365;48.858;8.530;2023-06-22T15:12:01;7.40;;;5.47;;
45650;SDS011;31365;48.858;8.530;2023-06-22T15:14:32;9.98;;;5.75;;
45650;SDS011;31365;48.858;8.530;2023-06-22T15:17:01;10.13;;;5.70;;
45650;SDS011;31365;48.858;8.530;2023-06-22T15:19:29;6.90;;;5.82;;
45650;SDS011;31365;48.858;8.530;2023-06-22T15:21:57;6.70;;;5.90;;
45650;SDS011;31365;48.858;8.530;2023-06-22T15:24:27;9.50;;;5.00;;
45650;SDS011;31365;48.858;8.530;2023-06-22T15:26:56;9.85;;;5.97;;
45650;SDS011;31365;48.858;8.530;2023-06-22T15:29:25;7.53;;;6.05;;
45650;SDS011;31365;48.858;8.530;2023-06-22T15:31:57;14.02;;;5.85;;
45650;SDS011;31365;48.858;8.530;2023-06-22T15:34:25;8.23;;;5.78;;
45650;SDS011;31365;48.858;8.530;2023-06-22T15:36:54;7.28;;;5.20;;
45650;SDS011;31365;48.858;8.530;2023-06-22T15:39:22;11.10;;;5.63;;
45650;SDS011;31365;48.858;8.530;2023-06-22T15:41:54;9.40;;;5.50;;
45650;SDS011;31365;48.858;8.530;2023-06-22T15:44:24;6.32;;;5.53;;
45650;SDS011;31365;48.858;8.530;2023-06-22T15:46:53;8.40;;;5.80;;
45650;SDS011;31365;48.858;8.530;2023-06-22T15:49:22;9.48;;;5.50;;
45650;SDS011;31365;48.858;8.530;2023-06-22T15:51:50;8.98;;;5.95;;
45650;SDS011;31365;48.858;8.530;2023-06-22T15:54:19;8.02;;;5.22;;
45650;SDS011;31365;48.858;8.530;2023-06-22T15:56:48;8.10;;;5.03;;
45650;SDS011;31365;48.858;8.530;2023-06-22T15:59:18;11.30;;;5.55;;
45650;SDS011;31365;48.858;8.530;2023-06-22T16:01:47;10.50;;;5.45;;
45650;SDS011;31365;48.858;8.530;2023-06-22T16:04:15;8.07;;;5.32;;
45650;SDS011;31365;48.858;8.530;2023-06-22T16:06:44;9.73;;;5.60;;
45650;SDS011;31365;48.858;8.530;2023-06-22T16:09:12;8.50;;;5.35;;
45650;SDS011;31365;48.858;8.530;2023-06-22T16:11:41;8.55;;;5.13;;
45650;SDS011;31365;48.858;8.530;2023-06-22T16:14:11;8.18;;;5.45;;
45650;SDS011;31365;48.858;8.530;2023-06-22T16:16:43;8.10;;;5.25;;
45650;SDS011;31365;48.858;8.530;2023-06-22T16:19:12;9.75;;;5.10;;